Time;durP1;ratioP1;P1;durP2;ratioP2;P2;SDS_P1;SDS_P2;PMS_P1;PMS_P2;Temp;Humidity;BMP_temperature;BMP_pressure;BME280_temperature;BME280_humidity;BME280_pressure;Samples;Min_cycle;Max_cycle;Signal;HPM_P1;HPM_P2
2021/09/22 00:02:10;;;;;;;8.70;5.95;;;;;;;5.45;81.80;100320.86;1704251;82;20954;-61
2021/09/22 00:04:37;;;;;;;15.30;6.40;;;;;;;5.41;81.82;100326.98;1701196;83;21518;-61
2021/09/22 00:07:04;;;;;;;8.00;5.97;;;;;;;5.38;81.96;100323.16;1698392;83;20923;-61
2021/09/22 00:09:31;;;;;;;8.93;7.07;;;;;;;5.36;82.00;100323.61;1700865;83;21189;-60
2021/09/22 00:11:58;;;;;;;10.20;6.27;;;;;;;5.31;81.99;100320.23;1699457;83;20923;-60
2021/09/22 00:14:24;;;;;;;9.48;4.87;;;;;;;5.28;82.09;100326.31;1693712;83;20876;-61
2021/09/22 00:16:51;;;;;;;17.33;7.67;;;;;;;5.23;82.04;100332.44;1712047;80;20906;-61
2021/09/22 00:19:18;;;;;;;19.30;6.28;;;;;;;5.22;82.27;100336.77;1743899;81;20985;-61
2021/09/22 00:21:44;;;;;;;16.20;5.83;;;;;;;5.24;82.27;100341.50;1740290;81;21048;-61
2021/09/22 00:24:11;;;;;;;19.40;6.30;;;;;;;5.22;82.22;100334.63;1732705;80;20890;-61
2021/09/22 00:26:37;;;;;;;16.73;6.87;;;;;;;5.20;82.22;100327.31;1692920;83;21602;-60
2021/09/22 00:29:04;;;;;;;16.95;7.55;;;;;;;5.17;82.22;100320.45;1732296;80;20961;-61
2021/09/22 00:31:35;;;;;;;26.77;8.85;;;;;;;5.13;82.26;100326.12;1741363;80;20898;-61
2021/09/22 00:33:59;;;;;;;45.28;8.98;;;;;;;5.09;82.26;100323.14;1729534;81;21512;-60
2021/09/22 00:36:25;;;;;;;73.45;9.80;;;;;;;5.07;82.27;100321.05;1733853;80;20890;-61
2021/09/22 00:38:52;;;;;;;68.37;10.60;;;;;;;5.09;82.35;100315.83;1743407;80;20855;-61
2021/09/22 00:41:19;;;;;;;59.15;8.85;;;;;;;5.10;82.45;100315.81;1740253;80;20950;-61
2021/09/22 00:43:46;;;;;;;70.97;10.15;;;;;;;5.12;82.47;100317.06;1750776;80;20990;-60
2021/09/22 00:46:12;;;;;;;67.62;8.43;;;;;;;5.11;82.45;100312.34;1732279;80;21020;-61
2021/09/22 00:48:39;;;;;;;63.75;9.45;;;;;;;5.13;82.42;100313.62;1740440;80;20989;-61
2021/09/22 00:51:08;;;;;;;88.17;9.05;;;;;;;5.11;82.45;100320.11;1738604;80;20969;-61
2021/09/22 00:53:36;;;;;;;85.97;8.73;;;;;;;5.09;82.45;100310.20;1743155;80;21497;-61
2021/09/22 00:56:05;;;;;;;57.65;8.50;;;;;;;5.08;82.37;100314.98;1742306;80;21036;-60
2021/09/22 00:58:33;;;;;;;61.18;10.23;;;;;;;5.05;82.35;100317.61;1741556;80;21122;-61
2021/09/22 01:00:59;;;;;;;;;;;;;;;5.07;82.52;100319.75;1741822;80;21428;-61
2021/09/22 01:03:27;;;;;;;32.45;10.63;;;;;;;5.05;82.56;100319.36;1732952;80;20481;-61
2021/09/22 01:05:55;;;;;;;35.13;9.93;;;;;;;5.00;82.56;100323.30;1725193;81;20911;-60
2021/09/22 01:08:22;;;;;;;;;;;;;;;4.99;82.69;100318.16;1743124;80;22200;-61
2021/09/22 01:10:49;;;;;;;17.35;9.58;;;;;;;5.01;82.91;100314.64;1738103;80;21202;-60
2021/09/22 01:13:17;;;;;;;;;;;;;;;4.99;82.71;100319.01;1735438;81;20934;-61
2021/09/22 01:15:44;;;;;;;;;;;;;;;5.01;82.80;100322.41;1738187;80;20441;-61
2021/09/22 01:18:18;;;;;;;22.30;6.47;;;;;;;4.99;82.90;100312.53;1736768;80;20100;-60
2021/09/22 01:20:54;;;;;;;51.77;9.00;;;;;;;5.02;83.10;100316.81;1739775;80;21010;-61
2021/09/22 01:23:22;;;;;;;31.57;9.68;;;;;;;5.08;83.15;100321.45;1739532;80;21096;-60
2021/09/22 01:25:51;;;;;;;23.55;8.65;;;;;;;5.11;83.05;100314.92;1733108;80;21441;-61
2021/09/22 01:28:22;;;;;;;35.80;9.30;;;;;;;5.10;82.94;100318.41;1736332;80;20926;-61
2021/09/22 01:30:50;;;;;;;34.27;9.75;;;;;;;5.09;82.96;100315.37;1733373;80;20973;-60
2021/09/22 01:33:22;;;;;;;29.92;8.53;;;;;;;5.07;82.97;100317.16;1727899;81;21456;-61
2021/09/22 01:35:49;;;;;;;12.15;8.45;;;;;;;5.05;83.04;100324.09;1723994;80;21941;-60
2021/09/22 01:38:21;;;;;;;13.10;8.13;;;;;;;5.01;83.02;100312.05;1734899;80;21427;-60
2021/09/22 01:41:00;;;;;;;11.20;7.42;;;;;;;5.00;83.01;100316.83;1743293;80;21425;-61
2021/09/22 01:43:29;;;;;;;9.98;7.10;;;;;;;4.99;83.10;100315.57;1738257;80;20949;-60
2021/09/22 01:45:57;;;;;;;16.02;6.22;;;;;;;5.00;83.19;100315.53;1743856;80;20937;-61
2021/09/22 01:48:24;;;;;;;11.28;5.83;;;;;;;4.96;83.03;100319.05;1730918;80;21818;-60
2021/09/22 01:50:51;;;;;;;11.25;6.22;;;;;;;4.95;83.18;100313.45;1734425;80;21472;-60
2021/09/22 01:53:17;;;;;;;7.58;6.05;;;;;;;4.97;83.17;100313.44;1737268;80;20898;-60
2021/09/22 01:55:44;;;;;;;27.77;6.10;;;;;;;4.97;83.20;100318.16;1742983;80;20934;-61
2021/09/22 01:58:11;;;;;;;13.48;6.83;;;;;;;4.97;83.14;100315.58;1745453;80;20934;-60
2021/09/22 02:00:38;;;;;;;20.40;7.50;;;;;;;4.91;83.06;100324.73;1734763;80;21909;-60
2021/09/22 02:03:05;;;;;;;21.07;7.10;;;;;;;4.88;83.20;100320.90;1732259;81;20866;-61
2021/09/22 02:05:32;;;;;;;23.13;6.67;;;;;;;4.89;83.25;100320.01;1736221;80;20882;-60
2021/09/22 02:07:58;;;;;;;26.48;5.78;;;;;;;4.87;83.22;100321.75;1726697;80;20961;-60
2021/09/22 02:10:25;;;;;;;25.72;5.58;;;;;;;4.82;83.09;100326.16;1742599;81;20981;-60
2021/09/22 02:12:52;;;;;;;8.23;6.03;;;;;;;4.74;83.09;100327.55;1731874;81;21043;-60
2021/09/22 02:15:19;;;;;;;41.58;6.65;;;;;;;4.67;83.01;100325.47;1726993;80;20930;-61
2021/09/22 02:17:45;;;;;;;30.50;6.47;;;;;;;4.58;83.06;100320.43;1726204;80;20953;-61
2021/09/22 02:20:12;;;;;;;17.82;7.10;;;;;;;4.53;83.07;100319.63;1726014;81;20946;-61
2021/09/22 02:22:39;;;;;;;18.90;6.15;;;;;;;4.46;83.06;100324.03;1726622;81;20930;-60
2021/09/22 02:25:08;;;;;;;18.13;5.50;;;;;;;4.40;83.10;100323.27;1726605;81;21953;-60
2021/09/22 02:27:35;;;;;;;29.98;7.70;;;;;;;4.36;83.27;100318.99;1712224;81;20896;-61
2021/09/22 02:30:05;;;;;;;28.15;6.35;;;;;;;4.32;83.10;100316.04;1722885;81;20888;-60
2021/09/22 02:32:31;;;;;;;34.48;7.05;;;;;;;4.31;83.31;100315.60;1716270;81;20954;-60
2021/09/22 02:34:58;;;;;;;25.70;6.30;;;;;;;4.30;83.31;100324.25;1700783;83;20959;-60
2021/09/22 02:37:25;;;;;;;17.92;6.17;;;;;;;4.30;83.50;100321.66;1705051;82;20990;-60
2021/09/22 02:39:52;;;;;;;31.65;6.22;;;;;;;4.28;83.31;100321.66;1706287;82;20946;-60
2021/09/22 02:42:19;;;;;;;31.93;6.50;;;;;;;4.23;83.35;100316.56;1703902;83;20954;-60
2021/09/22 02:44:45;;;;;;;11.28;5.95;;;;;;;4.17;83.36;100321.81;1705367;82;21006;-60
2021/09/22 02:47:14;;;;;;;33.10;6.60;;;;;;;4.13;83.26;100329.17;1701769;82;20939;-60
2021/09/22 02:49:41;;;;;;;15.80;6.30;;;;;;;4.07;83.30;100330.53;1703824;82;21059;-61
2021/09/22 02:52:08;;;;;;;20.10;6.62;;;;;;;3.98;83.19;100324.19;1701928;82;20876;-60
2021/09/22 02:54:35;;;;;;;13.85;6.08;;;;;;;3.94;83.28;100323.78;1705413;82;20954;-60
2021/09/22 02:57:01;;;;;;;12.25;6.33;;;;;;;3.94;83.47;100331.53;1701598;82;20914;-60
2021/09/22 02:59:28;;;;;;;23.12;6.78;;;;;;;3.94;83.47;100341.86;1702350;82;20920;-61
2021/09/22 03:01:54;;;;;;;9.53;5.75;;;;;;;3.91;83.45;100339.31;1705485;82;21116;-60
2021/09/22 03:04:21;;;;;;;12.82;6.97;;;;;;;3.83;83.32;100343.70;1698284;82;21119;-60
2021/09/22 03:06:48;;;;;;;9.97;6.30;;;;;;;3.72;83.34;100343.36;1697384;82;20907;-60
2021/09/22 03:09:15;;;;;;;8.85;6.92;;;;;;;3.67;83.49;100343.86;1700339;83;21466;-60
2021/09/22 03:11:42;;;;;;;9.83;7.12;;;;;;;3.66;83.57;100344.70;1679196;83;21439;-60
2021/09/22 03:14:09;;;;;;;13.45;6.87;;;;;;;3.68;83.70;100352.45;1704000;82;21468;-60
2021/09/22 03:16:36;;;;;;;8.00;6.40;;;;;;;3.73;83.79;100356.71;1701680;82;20974;-60
2021/09/22 03:19:02;;;;;;;8.30;7.15;;;;;;;3.75;83.81;100360.14;1697750;83;20915;-61
2021/09/22 03:21:29;;;;;;;8.73;6.60;;;;;;;3.81;83.95;100362.66;1729753;80;21365;-60
2021/09/22 03:23:56;;;;;;;6.85;6.10;;;;;;;3.83;83.77;100364.36;1694699;82;21526;-60
2021/09/22 03:26:24;;;;;;;11.90;5.67;;;;;;;3.77;83.52;100370.00;1741637;81;21874;-60
2021/09/22 03:28:50;;;;;;;;;;;;;;;3.71;83.64;100359.73;1735752;80;21506;-60
2021/09/22 03:31:17;;;;;;;5.85;5.28;;;;;;;3.68;83.71;100361.05;1731021;80;20073;-60
2021/09/22 03:33:43;;;;;;;7.42;5.42;;;;;;;3.62;83.61;100363.70;1740176;80;20962;-60
2021/09/22 03:36:11;;;;;;;10.13;5.40;;;;;;;3.58;83.77;100365.45;1733449;80;20927;-60
2021/09/22 03:38:38;;;;;;;6.25;5.65;;;;;;;3.62;83.94;100371.45;1730249;81;21097;-61
2021/09/22 03:41:04;;;;;;;8.95;6.25;;;;;;;3.59;83.77;100374.05;1724678;80;20987;-60
2021/09/22 03:43:31;;;;;;;13.68;6.78;;;;;;;3.52;83.70;100376.25;1731623;81;20895;-60
2021/09/22 03:45:58;;;;;;;9.48;7.03;;;;;;;3.47;83.74;100376.72;1733845;80;20961;-60
2021/09/22 03:48:25;;;;;;;11.05;7.08;;;;;;;3.41;83.71;100378.06;1723076;80;20910;-61
2021/09/22 03:50:52;;;;;;;14.00;6.97;;;;;;;3.35;83.73;100381.10;1736432;80;21983;-60
2021/09/22 03:53:20;;;;;;;15.75;7.35;;;;;;;3.30;83.77;100382.86;1739124;80;20915;-60
2021/09/22 03:55:48;;;;;;;13.62;7.72;;;;;;;3.27;83.85;100380.30;1732719;80;20934;-60
2021/09/22 03:58:14;;;;;;;14.13;7.03;;;;;;;3.28;84.00;100378.60;1729849;80;20947;-60
2021/09/22 04:00:41;;;;;;;15.43;6.80;;;;;;;3.29;84.08;100385.47;1725580;81;21524;-60
2021/09/22 04:03:08;;;;;;;8.98;7.42;;;;;;;3.33;84.12;100380.28;1733176;81;22571;-60
2021/09/22 04:05:35;;;;;;;9.23;6.03;;;;;;;3.38;84.12;100379.37;1733649;80;21413;-60
2021/09/22 04:08:03;;;;;;;7.50;6.28;;;;;;;3.42;84.16;100379.77;1732228;80;20955;-61
2021/09/22 04:10:29;;;;;;;;;;;;;;;3.45;84.19;100379.33;1713804;81;21479;-60
2021/09/22 04:12:56;;;;;;;7.00;5.87;;;;;;;3.47;84.30;100371.55;1733551;80;20073;-60
2021/09/22 04:15:23;;;;;;;8.57;6.33;;;;;;;3.52;84.41;100370.65;1733747;80;20993;-61
2021/09/22 04:17:49;;;;;;;7.00;6.08;;;;;;;3.55;84.26;100374.94;1723403;81;21478;-60
2021/09/22 04:20:16;;;;;;;10.70;7.70;;;;;;;3.57;84.21;100382.24;1695244;82;20927;-61
2021/09/22 04:22:43;;;;;;;13.00;6.47;;;;;;;3.61;84.33;100380.04;1692042;82;20974;-60
2021/09/22 04:25:11;;;;;;;7.50;5.58;;;;;;;3.72;84.53;100393.72;1695682;83;20953;-60
2021/09/22 04:27:37;;;;;;;;;;;;;;;3.81;84.54;100391.08;1700154;83;21025;-60
2021/09/22 04:30:07;;;;;;;8.33;6.27;;;;;;;3.85;84.45;100389.76;1699114;83;20165;-61
2021/09/22 04:32:33;;;;;;;10.55;7.92;;;;;;;3.88;84.50;100393.59;1695826;83;21026;-61
2021/09/22 04:35:01;;;;;;;12.70;8.80;;;;;;;3.90;84.49;100394.45;1696759;82;20931;-60
2021/09/22 04:37:34;;;;;;;11.12;8.68;;;;;;;3.90;84.39;100399.62;1699573;82;21025;-60
2021/09/22 04:39:57;;;;;;;13.10;9.53;;;;;;;3.92;84.43;100397.85;1696996;82;21124;-60
2021/09/22 04:42:23;;;;;;;13.72;8.95;;;;;;;3.96;84.60;100397.83;1695996;83;20958;-61
2021/09/22 04:44:50;;;;;;;13.30;9.00;;;;;;;4.05;84.74;100389.13;1672325;83;21500;-60
2021/09/22 04:47:17;;;;;;;13.78;9.05;;;;;;;4.15;84.85;100392.05;1702770;82;20914;-61
2021/09/22 04:49:44;;;;;;;16.57;8.68;;;;;;;4.25;84.95;100391.05;1693585;82;21435;-61
2021/09/22 04:52:10;;;;;;;10.28;8.35;;;;;;;4.37;84.96;100389.20;1694371;82;21820;-61
2021/09/22 04:54:37;;;;;;;10.05;7.72;;;;;;;4.40;84.68;100390.50;1695792;82;21470;-61
2021/09/22 04:57:03;;;;;;;11.78;8.50;;;;;;;4.38;84.44;100402.58;1695501;82;21467;-60
2021/09/22 04:59:30;;;;;;;15.10;8.38;;;;;;;4.40;84.71;100396.52;1696302;82;20976;-61
2021/09/22 05:01:57;;;;;;;10.28;7.65;;;;;;;4.52;84.91;100398.09;1697266;82;21444;-60
2021/09/22 05:04:24;;;;;;;11.75;8.08;;;;;;;4.60;84.99;100391.11;1700505;83;21094;-60
2021/09/22 05:06:50;;;;;;;9.00;6.85;;;;;;;4.76;85.25;100389.20;1693420;82;21497;-60
2021/09/22 05:09:17;;;;;;;13.00;7.37;;;;;;;4.89;85.29;100392.46;1694950;82;21462;-61
2021/09/22 05:11:43;;;;;;;11.43;7.00;;;;;;;5.06;85.36;100394.38;1701546;82;20892;-61
2021/09/22 05:14:10;;;;;;;9.53;7.08;;;;;;;5.22;85.29;100401.50;1699707;83;20888;-60
2021/09/22 05:16:36;;;;;;;8.63;6.80;;;;;;;5.31;85.12;100401.35;1700212;83;21091;-60
2021/09/22 05:19:04;;;;;;;20.48;9.45;;;;;;;5.40;85.17;100402.95;1698540;82;20914;-60
2021/09/22 05:21:35;;;;;;;18.87;12.90;;;;;;;5.53;85.20;100407.06;1700035;83;20956;-59
2021/09/22 05:24:01;;;;;;;23.57;12.85;;;;;;;5.63;85.03;100408.20;1698761;82;21015;-58
2021/09/22 05:26:28;;;;;;;18.67;12.98;;;;;;;5.72;85.08;100411.97;1700110;82;20973;-59
2021/09/22 05:28:55;;;;;;;20.90;12.70;;;;;;;5.84;85.16;100409.16;1699091;83;21866;-59
2021/09/22 05:31:21;;;;;;;15.23;10.80;;;;;;;5.97;85.17;100406.81;1699710;82;20916;-59
2021/09/22 05:33:48;;;;;;;22.50;12.50;;;;;;;6.07;85.11;100410.53;1692446;83;20958;-59
2021/09/22 05:36:14;;;;;;;19.82;11.80;;;;;;;6.16;85.19;100409.06;1700801;82;20915;-58
2021/09/22 05:38:41;;;;;;;25.77;11.83;;;;;;;6.24;85.16;100405.44;1703824;82;20925;-59
2021/09/22 05:41:19;;;;;;;17.12;10.95;;;;;;;6.34;85.31;100406.59;1695835;82;21605;-59
2021/09/22 05:43:56;;;;;;;21.90;11.88;;;;;;;6.46;85.40;100412.38;1699346;82;20896;-59
2021/09/22 05:46:23;;;;;;;16.70;9.55;;;;;;;6.58;85.53;100416.50;1702852;83;20949;-59
2021/09/22 05:48:50;;;;;;;19.77;10.13;;;;;;;6.71;85.42;100424.88;1700735;81;21445;-59
2021/09/22 05:51:17;;;;;;;22.80;8.97;;;;;;;6.81;85.59;100417.77;1700378;82;21477;-60
2021/09/22 05:53:44;;;;;;;26.30;9.20;;;;;;;6.95;85.49;100414.44;1698814;82;21377;-59
2021/09/22 05:56:12;;;;;;;17.75;8.83;;;;;;;7.11;85.74;100418.84;1696972;82;20947;-59
2021/09/22 05:58:38;;;;;;;21.42;10.08;;;;;;;7.35;86.00;100420.89;1699669;82;20983;-60
2021/09/22 06:01:05;;;;;;;26.37;10.70;;;;;;;7.58;85.97;100427.30;1700440;82;20910;-60
2021/09/22 06:03:34;;;;;;;18.05;9.43;;;;;;;7.90;86.05;100425.65;1702662;82;20894;-59
2021/09/22 06:06:01;;;;;;;17.42;8.80;;;;;;;8.10;85.71;100426.47;1702867;82;21092;-60
2021/09/22 06:08:28;;;;;;;15.18;8.38;;;;;;;8.34;85.86;100421.05;1699174;82;28132;-60
2021/09/22 06:10:55;;;;;;;21.40;9.18;;;;;;;8.48;85.52;100418.95;1694669;82;20875;-60
2021/09/22 06:13:22;;;;;;;16.15;9.28;;;;;;;8.67;85.46;100425.36;1698378;83;20867;-60
2021/09/22 06:15:51;;;;;;;15.45;8.55;;;;;;;8.82;85.58;100423.22;1692615;82;20983;-60
2021/09/22 06:18:17;;;;;;;15.65;8.08;;;;;;;9.04;85.75;100420.84;1704868;81;21064;-60
2021/09/22 06:20:44;;;;;;;16.63;9.07;;;;;;;9.15;85.37;100423.52;1713046;81;21473;-60
2021/09/22 06:23:17;;;;;;;22.10;8.60;;;;;;;9.22;85.36;100429.87;1712548;81;20921;-60
2021/09/22 06:25:43;;;;;;;16.37;7.17;;;;;;;9.38;85.64;100429.36;1711496;81;20936;-60
2021/09/22 06:28:10;;;;;;;11.43;6.37;;;;;;;9.49;85.53;100431.60;1712100;81;20973;-60
2021/09/22 06:30:37;;;;;;;20.32;7.95;;;;;;;9.59;85.54;100427.81;1715623;81;21025;-60
2021/09/22 06:33:03;;;;;;;19.02;8.58;;;;;;;9.77;85.63;100425.50;1717301;81;20879;-60
2021/09/22 06:35:30;;;;;;;23.27;8.73;;;;;;;9.83;85.29;100428.78;1722776;81;20942;-59
2021/09/22 06:37:57;;;;;;;22.77;8.25;;;;;;;9.95;85.19;100432.73;1720874;81;20871;-59
2021/09/22 06:40:24;;;;;;;15.00;7.53;;;;;;;10.00;85.08;100436.05;1717822;81;20895;-60
2021/09/22 06:42:52;;;;;;;10.93;5.20;;;;;;;10.08;85.07;100431.43;1719421;81;21860;-59
2021/09/22 06:45:23;;;;;;;19.85;5.22;;;;;;;10.13;84.72;100430.41;1714322;80;21016;-59
2021/09/22 06:47:49;;;;;;;10.28;5.40;;;;;;;10.17;84.92;100425.50;1708681;81;21446;-59
2021/09/22 06:50:16;;;;;;;11.73;5.35;;;;;;;10.18;84.76;100424.58;1714408;81;20945;-59
2021/09/22 06:52:42;;;;;;;10.05;4.78;;;;;;;10.14;84.67;100429.48;1720633;81;20942;-60
2021/09/22 06:55:10;;;;;;;5.63;4.03;;;;;;;10.08;84.73;100441.87;1713457;81;21994;-60
2021/09/22 06:57:37;;;;;;;3.85;3.45;;;;;;;9.91;84.26;100436.33;1674502;83;20875;-59
2021/09/22 07:00:09;;;;;;;7.30;4.58;;;;;;;9.76;84.43;100431.64;1700074;83;20966;-60
2021/09/22 07:02:50;;;;;;;4.85;3.80;;;;;;;9.63;84.71;100438.56;1693597;82;20920;-60
2021/09/22 07:05:20;;;;;;;5.12;3.05;;;;;;;9.60;84.90;100437.33;1700928;82;20898;-60
2021/09/22 07:07:47;;;;;;;4.87;3.20;;;;;;;9.57;84.95;100433.98;1706087;82;21002;-60
2021/09/22 07:10:16;;;;;;;;;;;;;;;9.51;84.79;100433.72;1715404;81;20930;-60
2021/09/22 07:12:43;;;;;;;5.60;3.45;;;;;;;9.49;85.06;100428.14;1721216;81;20125;-60
2021/09/22 07:15:11;;;;;;;3.92;2.60;;;;;;;9.49;85.30;100430.30;1712335;81;26536;-60
2021/09/22 07:17:37;;;;;;;4.92;2.90;;;;;;;9.53;85.14;100429.77;1718731;81;20931;-60
2021/09/22 07:20:06;;;;;;;3.23;2.87;;;;;;;9.55;85.12;100433.16;1704022;81;21052;-60
2021/09/22 07:22:33;;;;;;;5.33;3.10;;;;;;;9.55;85.00;100436.65;1703646;82;21651;-60
2021/09/22 07:24:59;;;;;;;3.30;2.90;;;;;;;9.56;84.86;100435.73;1694105;82;20859;-60
2021/09/22 07:27:26;;;;;;;4.33;2.60;;;;;;;9.64;85.28;100437.65;1695396;82;20939;-59
2021/09/22 07:29:55;;;;;;;4.37;2.80;;;;;;;9.73;85.10;100436.95;1700994;82;20927;-60
2021/09/22 07:32:55;;;;;;;5.08;3.22;;;;;;;9.78;85.17;100429.84;1699330;81;21526;-60
2021/09/22 07:35:26;;;;;;;3.15;2.85;;;;;;;9.78;84.79;100438.52;1690462;83;20943;-60
2021/09/22 07:38:26;;;;;;;3.55;2.55;;;;;;;9.83;85.10;100438.34;1695896;82;20927;-60
2021/09/22 07:41:33;;;;;;;3.37;2.77;;;;;;;9.84;84.90;100442.67;1698920;81;20922;-60
2021/09/22 07:44:18;;;;;;;3.15;2.27;;;;;;;9.87;85.11;100443.87;1699230;82;35328;-60
2021/09/22 07:47:13;;;;;;;3.65;2.90;;;;;;;9.91;84.84;100446.77;1690799;83;21142;-60
2021/09/22 07:49:46;;;;;;;5.30;2.80;;;;;;;9.85;84.84;100448.28;1693743;82;21512;-59
2021/09/22 07:52:17;;;;;;;5.30;2.92;;;;;;;9.89;85.02;100458.16;1698848;82;21441;-60
2021/09/22 07:54:50;;;;;;;4.12;2.83;;;;;;;9.99;85.08;100453.89;1694749;83;21468;-60
2021/09/22 07:57:18;;;;;;;4.50;3.08;;;;;;;9.97;84.53;100454.42;1697061;83;20931;-60
2021/09/22 07:59:55;;;;;;;4.00;3.12;;;;;;;9.94;84.63;100455.83;1700788;83;20979;-61
2021/09/22 08:02:22;;;;;;;2.95;2.52;;;;;;;9.98;84.93;100452.66;1698175;82;20868;-60
2021/09/22 08:04:49;;;;;;;6.35;3.33;;;;;;;10.04;84.86;100453.30;1694405;82;20960;-60
2021/09/22 08:07:18;;;;;;;6.70;3.37;;;;;;;10.03;84.50;100456.81;1697083;82;21466;-60
2021/09/22 08:09:45;;;;;;;26.80;7.78;;;;;;;10.05;84.83;100461.55;1726049;81;21560;-60
2021/09/22 08:12:12;;;;;;;32.17;9.53;;;;;;;10.09;84.77;100464.44;1694393;83;21021;-60
2021/09/22 08:14:43;;;;;;;4.30;3.00;;;;;;;10.16;84.81;100462.92;1696709;83;20953;-60
2021/09/22 08:17:14;;;;;;;4.83;2.92;;;;;;;10.25;84.83;100469.12;1698630;82;20950;-60
2021/09/22 08:19:48;;;;;;;5.15;3.40;;;;;;;10.32;84.73;100468.05;1714931;81;20995;-60
2021/09/22 08:22:18;;;;;;;3.12;2.62;;;;;;;10.26;84.29;100468.23;1728668;81;21004;-60
2021/09/22 08:24:46;;;;;;;4.33;2.85;;;;;;;10.23;84.57;100463.13;1721948;80;21038;-61
2021/09/22 08:27:13;;;;;;;3.15;2.80;;;;;;;10.34;84.54;100467.56;1723636;81;21457;-59
2021/09/22 08:29:41;;;;;;;4.37;2.87;;;;;;;10.34;84.56;100466.25;1708450;81;21383;-59
2021/09/22 08:32:08;;;;;;;3.45;2.80;;;;;;;10.39;84.47;100466.95;1725481;81;21504;-59
2021/09/22 08:34:34;;;;;;;2.97;2.67;;;;;;;10.46;84.58;100463.20;1722500;81;20898;-60
2021/09/22 08:37:01;;;;;;;3.45;2.47;;;;;;;10.48;84.01;100464.02;1718706;81;21604;-59
2021/09/22 08:39:29;;;;;;;3.80;2.40;;;;;;;10.37;83.70;100463.53;1722992;81;20961;-59
2021/09/22 08:41:57;;;;;;;3.47;2.45;;;;;;;10.33;83.87;100459.31;1711303;81;20957;-59
2021/09/22 08:44:24;;;;;;;3.60;2.45;;;;;;;10.35;84.03;100464.48;1716953;81;20984;-60
2021/09/22 08:46:50;;;;;;;3.75;2.33;;;;;;;10.39;84.15;100464.34;1716460;81;21488;-59
2021/09/22 08:49:17;;;;;;;5.28;2.55;;;;;;;10.42;83.85;100464.23;1725211;81;21000;-59
2021/09/22 08:51:45;;;;;;;3.17;2.40;;;;;;;10.43;83.83;100464.63;1721014;81;20938;-59
2021/09/22 08:54:13;;;;;;;2.90;2.60;;;;;;;10.49;84.19;100457.87;1725198;81;20906;-59
2021/09/22 08:56:42;;;;;;;3.60;2.40;;;;;;;10.51;83.59;100454.77;1726694;80;20962;-59
2021/09/22 08:59:12;;;;;;;7.35;3.33;;;;;;;10.52;83.73;100465.59;1720393;81;20950;-59
2021/09/22 09:01:38;;;;;;;3.30;2.77;;;;;;;10.59;84.02;100461.48;1683774;83;21898;-59
2021/09/22 09:04:19;;;;;;;2.85;2.50;;;;;;;10.60;83.53;100462.72;1687041;83;20896;-59
2021/09/22 09:06:47;;;;;;;6.03;2.80;;;;;;;10.60;83.53;100469.71;1699119;83;21371;-59
2021/09/22 09:09:14;;;;;;;5.10;3.15;;;;;;;10.57;83.45;100467.21;1675182;83;20931;-60
2021/09/22 09:11:43;;;;;;;7.12;4.35;;;;;;;10.60;83.59;100460.57;1726382;81;20923;-59
2021/09/22 09:14:13;;;;;;;5.53;3.42;;;;;;;10.65;83.62;100459.95;1720461;81;20980;-59
2021/09/22 09:16:44;;;;;;;5.75;3.35;;;;;;;10.81;83.91;100461.55;1721815;81;20983;-59
2021/09/22 09:19:15;;;;;;;5.10;3.92;;;;;;;10.91;83.62;100465.08;1730325;81;21517;-60
2021/09/22 09:22:06;;;;;;;6.87;3.55;;;;;;;10.96;83.21;100459.23;1736064;80;21496;-59
2021/09/22 09:24:43;;;;;;;6.60;5.90;;;;;;;10.94;83.19;100451.05;1683338;82;20912;-60
2021/09/22 09:27:20;;;;;;;3.12;2.62;;;;;;;11.02;83.60;100448.16;1681360;83;21971;-60
2021/09/22 09:29:54;;;;;;;5.92;3.42;;;;;;;11.03;82.96;100452.47;1675996;84;21422;-60
2021/09/22 09:32:33;;;;;;;4.40;3.00;;;;;;;11.02;82.92;100448.16;1678665;83;20969;-59
2021/09/22 09:35:08;;;;;;;3.98;2.92;;;;;;;11.03;82.88;100447.23;1682623;83;20930;-60
2021/09/22 09:37:41;;;;;;;3.45;2.45;;;;;;;11.08;83.10;100447.92;1683568;83;20922;-60
2021/09/22 09:40:34;;;;;;;3.25;2.58;;;;;;;11.09;82.91;100447.88;1687241;83;21993;-59
2021/09/22 09:43:07;;;;;;;5.70;2.77;;;;;;;11.06;82.46;100456.27;1707149;82;20891;-60
2021/09/22 09:45:45;;;;;;;2.60;2.40;;;;;;;11.03;82.74;100451.16;1685547;84;20958;-60
2021/09/22 09:48:16;;;;;;;4.17;2.67;;;;;;;11.14;83.28;100455.52;1672872;83;20983;-60
2021/09/22 09:50:53;;;;;;;2.77;2.10;;;;;;;11.28;83.26;100449.77;1696180;83;21455;-60
2021/09/22 09:53:28;;;;;;;5.67;2.75;;;;;;;11.35;82.99;100452.09;1701159;82;21225;-60
2021/09/22 09:55:59;;;;;;;4.92;2.55;;;;;;;11.47;83.22;100443.38;1704398;83;21500;-60
2021/09/22 09:58:42;;;;;;;4.90;2.00;;;;;;;11.57;82.86;100448.65;1702382;82;20901;-60
2021/09/22 10:01:09;;;;;;;2.95;2.22;;;;;;;11.69;83.19;100444.22;1704220;82;20938;-60
2021/09/22 10:03:36;;;;;;;3.08;2.35;;;;;;;11.76;82.41;100428.69;1685077;83;20912;-60
2021/09/22 10:06:03;;;;;;;;;;;;;;;11.77;82.28;100434.30;1743837;80;21068;-59
2021/09/22 10:08:30;;;;;;;3.33;2.45;;;;;;;11.74;81.67;100440.97;1739357;80;20338;-60
2021/09/22 10:11:03;;;;;;;3.87;2.17;;;;;;;11.71;81.92;100438.48;1740075;80;20927;-59
2021/09/22 10:13:26;;;;;;;3.75;2.40;;;;;;;11.79;82.15;100435.10;1738959;81;21621;-60
2021/09/22 10:15:53;;;;;;;2.65;2.15;;;;;;;11.95;82.16;100430.56;1742137;80;26271;-60
2021/09/22 10:18:20;;;;;;;4.53;2.87;;;;;;;12.08;81.99;100431.75;1739397;80;21025;-59
2021/09/22 10:20:49;;;;;;;3.60;1.90;;;;;;;12.25;81.74;100429.27;1739134;81;20919;-60
2021/09/22 10:23:22;;;;;;;2.80;1.80;;;;;;;12.35;81.45;100429.73;1732141;81;20951;-60
2021/09/22 10:25:50;;;;;;;1.75;1.47;;;;;;;12.51;81.61;100427.28;1744076;80;20949;-60
2021/09/22 10:28:44;;;;;;;3.37;1.80;;;;;;;12.78;81.96;100421.74;1739333;80;20961;-60
2021/09/22 10:31:33;;;;;;;2.33;2.00;;;;;;;13.07;81.91;100423.86;1710616;81;21192;-60
2021/09/22 10:34:00;;;;;;;2.65;1.80;;;;;;;13.23;80.89;100423.16;1739575;80;21393;-60
2021/09/22 10:36:40;;;;;;;1.95;1.75;;;;;;;13.42;80.87;100420.09;1729698;80;20962;-61
2021/09/22 10:39:31;;;;;;;2.27;1.40;;;;;;;13.76;81.66;100421.08;1712375;81;20967;-60
2021/09/22 10:41:58;;;;;;;2.08;1.60;;;;;;;14.07;79.99;100417.30;1736614;80;21520;-60
2021/09/22 10:44:37;;;;;;;4.35;1.85;;;;;;;14.32;80.50;100416.05;1734390;80;20913;-60
2021/09/22 10:47:33;;;;;;;2.10;1.65;;;;;;;14.28;79.63;100411.86;1738169;80;20899;-59
2021/09/22 10:49:58;;;;;;;1.85;1.30;;;;;;;14.18;78.70;100419.38;1739645;80;20970;-60
2021/09/22 10:52:38;;;;;;;2.80;1.20;;;;;;;14.32;79.36;100416.89;1718234;80;21455;-63
2021/09/22 10:55:17;;;;;;;2.87;1.30;;;;;;;14.17;76.61;100422.07;1733730;80;21012;-62
2021/09/22 10:57:49;;;;;;;1.10;1.00;;;;;;;13.91;77.28;100416.36;1723394;81;21050;-60
2021/09/22 11:00:20;;;;;;;1.95;1.40;;;;;;;13.69;77.42;100420.50;1733878;80;20867;-62
2021/09/22 11:02:53;;;;;;;16.27;2.27;;;;;;;13.44;76.94;100422.16;1731420;80;20948;-60
2021/09/22 11:05:33;;;;;;;4.00;1.72;;;;;;;13.31;77.86;100421.91;1731475;79;21421;-64
2021/09/22 11:08:04;;;;;;;2.47;1.90;;;;;;;13.15;76.26;100424.83;1732138;80;21477;-62
2021/09/22 11:10:42;;;;;;;3.47;2.10;;;;;;;12.95;77.43;100421.82;1728658;80;21002;-64
2021/09/22 11:13:28;;;;;;;3.02;2.20;;;;;;;12.84;77.62;100416.22;1730286;80;20961;-62
2021/09/22 11:16:08;;;;;;;4.78;2.10;;;;;;;12.73;77.66;100424.09;1739336;80;20921;-61
2021/09/22 11:18:41;;;;;;;4.70;2.00;;;;;;;12.48;77.43;100424.80;1733583;80;20939;-63
2021/09/22 11:21:08;;;;;;;6.15;1.92;;;;;;;12.28;76.84;100421.28;1746283;80;21681;-63
2021/09/22 11:23:36;;;;;;;4.78;2.47;;;;;;;12.01;77.18;100417.21;1745758;80;21107;-62
2021/09/22 11:26:07;;;;;;;;;;;;;;;11.89;76.57;100424.28;1752012;80;20879;-62
2021/09/22 11:28:35;;;;;;;4.90;2.80;;;;;;;11.76;77.52;100425.19;1747639;80;20496;-63
2021/09/22 11:31:01;;;;;;;5.30;2.83;;;;;;;11.65;77.68;100430.89;1745480;80;20859;-63
2021/09/22 11:33:29;;;;;;;9.53;2.75;;;;;;;11.54;77.66;100427.82;1742815;80;20924;-67
2021/09/22 11:36:09;;;;;;;5.72;2.83;;;;;;;11.53;77.94;100426.13;1749702;80;26851;-62
2021/09/22 11:38:37;;;;;;;10.50;2.60;;;;;;;11.59;77.85;100424.57;1742931;80;20940;-63
2021/09/22 11:41:06;;;;;;;6.05;2.20;;;;;;;11.63;77.93;100414.39;1720457;80;20958;-63